Time;durP1;ratioP1;P1;durP2;ratioP2;P2;SDS_P1;SDS_P2;PMS_P1;PMS_P2;Temp;Humidity;BMP_temperature;BMP_pressure;BME280_temperature;BME280_humidity;BME280_pressure;Samples;Min_cycle;Max_cycle;Signal;HPM_P1;HPM_P2
2022/05/08 00:01:35;;;;;;;19.03;17.07;;;10.40;99.90;;;;;;5103277;27;20205;-77
2022/05/08 00:04:02;;;;;;;20.90;18.73;;;10.30;99.90;;;;;;5108187;27;20326;-78
2022/05/08 00:06:29;;;;;;;22.27;19.90;;;10.30;99.90;;;;;;5103503;27;20206;-76
2022/05/08 00:08:56;;;;;;;20.90;18.57;;;10.30;99.90;;;;;;5108415;27;20200;-77
2022/05/08 00:11:23;;;;;;;19.30;17.30;;;10.20;99.90;;;;;;5104145;27;20695;-78
2022/05/08 00:13:51;;;;;;;20.23;18.13;;;10.20;99.90;;;;;;5102486;28;20220;-78
2022/05/08 00:16:18;;;;;;;21.33;19.03;;;10.20;99.90;;;;;;5108959;27;20196;-78
2022/05/08 00:18:45;;;;;;;20.33;18.23;;;10.20;99.90;;;;;;5093741;28;20682;-77
2022/05/08 00:21:12;;;;;;;20.70;18.57;;;10.10;99.90;;;;;;5105975;27;20212;-77
2022/05/08 00:23:39;;;;;;;21.23;19.23;;;10.10;99.90;;;;;;5098198;28;20227;-78
2022/05/08 00:26:08;;;;;;;23.40;21.20;;;10.00;99.90;;;;;;5109621;28;20202;-76
2022/05/08 00:28:35;;;;;;;20.87;18.77;;;10.00;99.90;;;;;;5102464;28;20197;-78
2022/05/08 00:31:04;;;;;;;19.97;18.07;;;9.90;99.90;;;;;;5102276;28;20205;-77
2022/05/08 00:33:31;;;;;;;21.30;19.07;;;9.90;99.90;;;;;;5108197;28;20311;-77
2022/05/08 00:35:58;;;;;;;19.13;17.23;;;9.90;99.90;;;;;;5092210;28;20231;-78
2022/05/08 00:38:25;;;;;;;22.70;20.60;;;9.90;99.90;;;;;;5107743;28;20656;-77
2022/05/08 00:40:52;;;;;;;23.57;21.27;;;9.90;99.90;;;;;;5094514;28;20214;-77
2022/05/08 00:43:33;;;;;;;22.13;20.00;;;9.90;99.90;;;;;;5108035;28;20224;-77
2022/05/08 00:46:06;;;;;;;21.50;19.40;;;9.90;99.90;;;;;;5095160;28;20193;-78
2022/05/08 00:48:34;;;;;;;21.90;19.80;;;9.90;99.90;;;;;;5105191;28;20552;-78
2022/05/08 00:51:02;;;;;;;19.77;17.77;;;9.90;99.90;;;;;;5104638;28;20720;-78
2022/05/08 00:53:33;;;;;;;19.10;17.20;;;9.90;99.90;;;;;;5105065;28;20228;-77
2022/05/08 00:56:03;;;;;;;17.17;15.57;;;9.80;99.90;;;;;;5104581;28;20201;-78
2022/05/08 00:58:30;;;;;;;18.30;16.50;;;9.80;99.90;;;;;;5104694;28;20201;-77
2022/05/08 01:00:58;;;;;;;16.80;15.20;;;9.80;99.90;;;;;;5106611;28;20267;-77
2022/05/08 01:03:26;;;;;;;17.83;16.03;;;9.80;99.90;;;;;;5103996;28;20228;-78
2022/05/08 01:05:55;;;;;;;20.30;18.30;;;9.70;99.90;;;;;;5105877;28;20201;-77
2022/05/08 01:08:23;;;;;;;20.40;18.30;;;9.70;99.90;;;;;;5097671;28;20193;-78
2022/05/08 01:10:52;;;;;;;20.87;18.77;;;9.70;99.90;;;;;;5094668;28;20216;-77
2022/05/08 01:13:19;;;;;;;19.83;17.93;;;9.70;99.90;;;;;;5119134;28;20213;-78
2022/05/08 01:15:47;;;;;;;19.87;17.80;;;9.70;99.90;;;;;;5103960;28;20291;-78
2022/05/08 01:18:15;;;;;;;21.77;19.73;;;9.60;99.90;;;;;;5102585;28;20201;-77
2022/05/08 01:20:45;;;;;;;23.60;21.30;;;9.60;99.90;;;;;;5107037;28;20186;-78
2022/05/08 01:23:15;;;;;;;24.03;21.47;;;9.60;99.90;;;;;;5101446;27;20696;-78
2022/05/08 01:25:48;;;;;;;25.93;23.43;;;9.50;99.90;;;;;;5102363;27;20241;-77
2022/05/08 01:28:15;;;;;;;22.60;20.40;;;9.50;99.90;;;;;;5108715;27;20210;-77
2022/05/08 01:30:43;;;;;;;26.60;24.10;;;9.50;99.90;;;;;;5101298;27;20314;-77
2022/05/08 01:33:10;;;;;;;25.90;23.47;;;9.50;99.90;;;;;;5104115;28;20242;-77
2022/05/08 01:35:38;;;;;;;23.77;21.47;;;9.50;99.90;;;;;;5097460;28;20205;-76
2022/05/08 01:38:06;;;;;;;22.43;20.03;;;9.50;99.90;;;;;;5105771;28;20194;-76
2022/05/08 01:40:37;;;;;;;20.50;18.50;;;9.50;99.90;;;;;;5099950;28;20693;-76
2022/05/08 01:43:05;;;;;;;21.07;18.77;;;9.40;99.90;;;;;;5098250;27;20312;-77
2022/05/08 01:45:32;;;;;;;20.23;18.13;;;9.40;99.90;;;;;;5105830;27;20205;-76
2022/05/08 01:50:43;;;;;;;20.67;18.57;;;9.40;99.90;;;;;;5096519;27;20219;-77
2022/05/08 01:53:10;;;;;;;20.83;18.73;;;9.40;99.90;;;;;;5102209;28;20701;-78
2022/05/08 01:55:39;;;;;;;19.63;17.77;;;9.30;99.90;;;;;;5096987;28;20189;-77
2022/05/08 01:58:06;;;;;;;20.33;18.17;;;9.30;99.90;;;;;;5105315;28;20238;-77
2022/05/08 02:00:33;;;;;;;20.87;18.53;;;9.30;99.90;;;;;;5097744;27;20315;-77
2022/05/08 02:03:02;;;;;;;20.03;18.07;;;9.20;99.90;;;;;;5096790;27;20251;-77
2022/05/08 02:05:31;;;;;;;21.37;19.33;;;9.10;99.90;;;;;;5105419;27;20231;-77
2022/05/08 02:07:58;;;;;;;20.30;18.30;;;9.10;99.90;;;;;;5099173;28;20205;-78
2022/05/08 02:10:25;;;;;;;20.77;18.57;;;9.10;99.90;;;;;;5102543;27;20223;-78
2022/05/08 02:12:54;;;;;;;23.27;19.23;;;9.10;99.90;;;;;;5100032;27;20311;-77
2022/05/08 02:15:24;;;;;;;22.50;20.20;;;9.00;99.90;;;;;;5102388;27;20189;-77
2022/05/08 02:17:52;;;;;;;20.17;18.20;;;9.00;99.90;;;;;;5104726;28;20323;-76
2022/05/08 02:20:18;;;;;;;19.60;17.70;;;9.00;99.90;;;;;;5105901;27;20197;-77
2022/05/08 02:22:45;;;;;;;21.60;19.50;;;8.90;99.90;;;;;;5097514;28;20265;-78
2022/05/08 02:25:12;;;;;;;20.30;18.20;;;8.90;99.90;;;;;;5097781;27;20197;-77
2022/05/08 02:27:41;;;;;;;17.43;15.70;;;8.80;99.90;;;;;;5101168;28;20196;-78
2022/05/08 02:30:11;;;;;;;17.37;15.63;;;8.80;99.90;;;;;;5104808;27;20223;-78
2022/05/08 02:32:39;;;;;;;19.23;17.07;;;8.80;99.90;;;;;;5103104;27;20307;-77
2022/05/08 02:35:09;;;;;;;20.90;18.83;;;8.80;99.90;;;;;;5103481;28;20193;-78
2022/05/08 02:37:37;;;;;;;22.03;19.73;;;8.80;99.90;;;;;;5104666;28;20280;-77
2022/05/08 02:40:05;;;;;;;20.77;18.67;;;8.90;99.90;;;;;;5104387;28;20193;-78
2022/05/08 02:42:32;;;;;;;17.97;16.17;;;8.80;99.90;;;;;;5102282;27;20227;-78
2022/05/08 02:44:59;;;;;;;18.00;16.23;;;8.80;99.90;;;;;;5101597;28;20208;-77
2022/05/08 02:47:28;;;;;;;19.17;17.33;;;8.80;99.90;;;;;;5106404;27;20484;-77
2022/05/08 02:49:55;;;;;;;19.87;17.77;;;8.80;99.90;;;;;;5105877;27;20224;-77
2022/05/08 02:52:22;;;;;;;20.50;18.43;;;8.80;99.90;;;;;;5105475;27;20213;-78
2022/05/08 02:54:49;;;;;;;20.50;18.43;;;8.80;99.90;;;;;;5105665;28;20228;-78
2022/05/08 03:00:05;;;;;;;18.07;16.37;;;8.70;99.90;;;;;;5098295;27;20200;-77
2022/05/08 03:02:34;;;;;;;18.50;16.80;;;8.70;99.90;;;;;;5122770;27;20232;-77
2022/05/08 03:05:01;;;;;;;20.70;18.70;;;8.70;99.90;;;;;;5101750;27;20201;-78
2022/05/08 03:07:29;;;;;;;21.27;19.07;;;8.60;99.90;;;;;;5090610;27;20197;-78
2022/05/08 03:09:56;;;;;;;19.50;17.70;;;8.60;99.90;;;;;;5102173;28;20215;-77
2022/05/08 03:12:23;;;;;;;20.67;18.67;;;8.50;99.90;;;;;;5097305;27;20599;-77
2022/05/08 03:14:51;;;;;;;21.10;19.00;;;8.50;99.90;;;;;;5103642;28;20665;-76
2022/05/08 03:17:18;;;;;;;20.33;18.33;;;8.40;99.90;;;;;;5104315;27;20201;-78
2022/05/08 03:19:47;;;;;;;22.30;19.97;;;8.40;99.90;;;;;;5097174;28;20197;-77
2022/05/08 03:22:14;;;;;;;22.77;19.37;;;8.50;99.90;;;;;;5097687;27;20217;-76
2022/05/08 03:24:41;;;;;;;21.93;19.83;;;8.50;99.90;;;;;;5107405;27;20204;-77
2022/05/08 03:27:08;;;;;;;22.30;20.20;;;8.50;99.90;;;;;;5083862;28;20206;-77
2022/05/08 03:29:35;;;;;;;20.60;18.60;;;8.40;99.90;;;;;;5094188;28;20194;-78
2022/05/08 03:32:02;;;;;;;22.20;19.77;;;8.40;99.90;;;;;;5093265;28;20729;-76
2022/05/08 03:34:31;;;;;;;23.43;21.10;;;8.40;99.90;;;;;;5094925;28;20220;-76
2022/05/08 03:36:59;;;;;;;22.97;20.77;;;8.40;99.90;;;;;;5094628;28;20204;-77
2022/05/08 03:39:26;;;;;;;23.00;20.80;;;8.40;99.90;;;;;;5095422;28;20193;-77
2022/05/08 03:41:53;;;;;;;21.23;19.27;;;8.40;99.90;;;;;;5093866;28;20280;-77
2022/05/08 03:44:22;;;;;;;21.60;19.60;;;8.40;99.90;;;;;;5094945;28;20197;-77
2022/05/08 03:46:49;;;;;;;23.73;21.53;;;8.40;99.90;;;;;;5094691;28;20197;-77
2022/05/08 03:49:16;;;;;;;23.50;21.30;;;8.40;99.90;;;;;;5095198;27;20654;-78
2022/05/08 03:51:43;;;;;;;23.33;21.03;;;8.50;99.90;;;;;;5092823;28;20606;-78
2022/05/08 03:54:11;;;;;;;23.90;21.67;;;8.50;99.90;;;;;;5094126;28;20189;-77
2022/05/08 03:56:38;;;;;;;23.33;21.13;;;8.50;99.90;;;;;;5100890;27;20562;-77
2022/05/08 03:59:05;;;;;;;22.57;20.33;;;8.50;99.90;;;;;;5105430;27;20201;-77
2022/05/08 04:01:32;;;;;;;21.53;19.53;;;8.50;99.90;;;;;;5105360;27;20246;-79
2022/05/08 04:03:59;;;;;;;21.47;19.27;;;8.50;99.90;;;;;;5105639;28;20232;-78
2022/05/08 04:06:26;;;;;;;22.30;20.07;;;8.50;99.90;;;;;;5104622;27;20673;-77
2022/05/08 04:08:53;;;;;;;19.97;18.00;;;8.50;99.90;;;;;;5105798;27;20210;-76
2022/05/08 04:11:22;;;;;;;18.43;16.73;;;8.60;99.90;;;;;;5102358;27;20220;-77
2022/05/08 04:13:49;;;;;;;19.80;17.93;;;8.60;99.90;;;;;;5105833;27;20230;-77
2022/05/08 04:16:19;;;;;;;21.53;19.23;;;8.60;99.90;;;;;;5092019;28;20663;-78
2022/05/08 04:18:46;;;;;;;21.53;19.33;;;8.70;99.90;;;;;;5105854;27;20200;-78
2022/05/08 04:21:13;;;;;;;22.03;19.83;;;8.70;99.90;;;;;;5102708;28;20200;-76
2022/05/08 04:26:26;;;;;;;18.53;16.63;;;8.80;99.90;;;;;;5086010;28;20197;-82
2022/05/08 04:28:53;;;;;;;17.93;16.17;;;8.80;99.90;;;;;;5091609;28;20212;-79
2022/05/08 04:31:22;;;;;;;16.90;15.10;;;8.80;99.90;;;;;;5099609;28;20257;-79
2022/05/08 04:33:49;;;;;;;19.90;17.90;;;8.80;99.90;;;;;;5092189;28;20727;-79
2022/05/08 04:36:17;;;;;;;19.90;18.00;;;8.90;99.90;;;;;;5119056;28;20679;-78
2022/05/08 04:38:44;;;;;;;20.60;18.50;;;8.90;99.90;;;;;;5104916;28;20200;-79
2022/05/08 04:41:11;;;;;;;19.93;18.07;;;9.00;99.90;;;;;;5106412;28;20196;-78
2022/05/08 04:43:42;;;;;;;20.20;18.27;;;8.90;99.90;;;;;;5103626;28;20269;-79
2022/05/08 04:46:10;;;;;;;21.27;19.17;;;9.00;99.90;;;;;;5105627;28;20192;-79
2022/05/08 04:48:38;;;;;;;20.40;18.30;;;9.00;99.90;;;;;;5097391;28;20206;-79
2022/05/08 04:51:05;;;;;;;21.10;19.03;;;9.00;99.90;;;;;;5105297;28;20246;-79
2022/05/08 04:53:32;;;;;;;20.00;18.20;;;9.00;99.90;;;;;;5105013;27;20220;-79
2022/05/08 04:55:59;;;;;;;21.67;19.77;;;9.10;99.90;;;;;;5106489;27;20193;-78
2022/05/08 04:58:29;;;;;;;20.00;18.30;;;9.10;99.90;;;;;;5108346;27;20205;-78
2022/05/08 05:00:58;;;;;;;19.63;17.90;;;9.10;99.90;;;;;;5103483;27;20569;-79
2022/05/08 05:03:26;;;;;;;21.33;19.37;;;9.20;99.90;;;;;;5108119;27;20297;-78
2022/05/08 05:05:53;;;;;;;19.03;17.23;;;9.30;99.90;;;;;;5107068;27;20196;-78
2022/05/08 05:08:20;;;;;;;19.93;17.93;;;9.30;99.90;;;;;;5107063;27;20203;-78
2022/05/08 05:10:48;;;;;;;20.00;18.20;;;9.30;99.90;;;;;;5112206;28;20629;-79
2022/05/08 05:13:16;;;;;;;19.93;18.23;;;9.40;99.90;;;;;;5106064;27;20225;-79
2022/05/08 05:15:43;;;;;;;21.77;19.77;;;9.40;99.90;;;;;;5103623;27;20209;-78
2022/05/08 05:18:11;;;;;;;19.73;17.83;;;9.40;99.90;;;;;;5105764;28;20222;-78
2022/05/08 05:20:38;;;;;;;19.27;17.57;;;9.40;99.90;;;;;;5105380;28;20205;-79
2022/05/08 05:23:06;;;;;;;20.70;18.80;;;9.50;99.90;;;;;;5106802;27;20359;-79
2022/05/08 05:25:33;;;;;;;21.13;19.07;;;9.60;99.90;;;;;;5100111;27;20227;-78
2022/05/08 05:28:00;;;;;;;19.13;17.43;;;9.70;99.90;;;;;;5110016;27;20211;-79
2022/05/08 05:30:27;;;;;;;16.20;14.60;;;9.80;99.90;;;;;;5105498;27;20224;-79
2022/05/08 05:32:54;;;;;;;17.17;15.47;;;10.00;99.90;;;;;;5106861;27;20224;-79
2022/05/08 05:35:22;;;;;;;20.33;18.43;;;10.10;99.90;;;;;;5106862;27;20205;-79
2022/05/08 05:37:49;;;;;;;16.30;14.20;;;10.20;99.90;;;;;;5108849;27;20195;-79
2022/05/08 05:40:16;;;;;;;15.70;14.00;;;10.20;99.90;;;;;;5100819;27;20205;-80
2022/05/08 05:42:43;;;;;;;15.40;13.90;;;10.40;99.90;;;;;;5108325;27;20224;-79
2022/05/08 05:45:10;;;;;;;14.27;12.87;;;10.50;99.90;;;;;;5107865;28;20189;-79
2022/05/08 05:47:52;;;;;;;18.77;17.07;;;10.60;99.90;;;;;;5110116;27;20207;-79
2022/05/08 05:50:22;;;;;;;16.70;13.97;;;10.60;99.90;;;;;;5103914;27;20204;-80
2022/05/08 05:52:49;;;;;;;16.57;14.87;;;10.70;99.90;;;;;;5100376;28;20213;-82
2022/05/08 05:55:16;;;;;;;16.10;14.53;;;10.70;99.90;;;;;;5097542;27;20288;-81
2022/05/08 05:57:44;;;;;;;15.60;13.00;;;10.80;99.90;;;;;;5110960;27;20258;-78
2022/05/08 06:00:13;;;;;;;14.27;12.80;;;10.80;99.90;;;;;;5109779;28;20197;-78
2022/05/08 06:02:42;;;;;;;15.37;13.83;;;11.00;99.90;;;;;;5107012;28;20228;-77
2022/05/08 06:05:10;;;;;;;13.70;12.40;;;11.20;99.90;;;;;;5098647;28;20206;-80
2022/05/08 06:07:39;;;;;;;12.80;11.50;;;11.30;99.90;;;;;;5101177;28;20196;-79
2022/05/08 06:10:09;;;;;;;13.23;11.93;;;11.50;99.90;;;;;;5109340;27;20201;-79
2022/05/08 06:12:36;;;;;;;13.53;12.30;;;11.60;99.90;;;;;;5099074;27;20218;-79
2022/05/08 06:15:05;;;;;;;12.17;10.93;;;11.70;99.90;;;;;;5105432;28;20207;-79
2022/05/08 06:17:32;;;;;;;15.93;14.63;;;11.80;99.90;;;;;;5100980;28;20209;-79
2022/05/08 06:19:58;;;;;;;13.10;11.70;;;11.90;99.90;;;;;;5094819;28;20225;-78
2022/05/08 06:22:25;;;;;;;12.20;11.00;;;12.00;99.90;;;;;;5100577;27;20313;-78
2022/05/08 06:24:54;;;;;;;13.97;12.57;;;12.10;99.90;;;;;;5109701;27;20747;-78
2022/05/08 06:27:21;;;;;;;16.13;14.53;;;12.20;99.90;;;;;;5102168;27;20210;-78
2022/05/08 06:29:48;;;;;;;14.60;13.30;;;12.20;99.90;;;;;;5102334;28;20204;-79
2022/05/08 06:32:15;;;;;;;16.93;15.60;;;12.30;99.90;;;;;;5102273;28;20228;-78
2022/05/08 06:34:42;;;;;;;15.97;14.47;;;12.50;99.90;;;;;;5103129;27;20214;-79
2022/05/08 06:37:09;;;;;;;16.27;14.97;;;12.80;99.90;;;;;;5102750;28;20239;-79
2022/05/08 06:39:37;;;;;;;15.70;14.50;;;12.90;99.90;;;;;;5104486;27;20202;-78
2022/05/08 06:42:07;;;;;;;15.90;14.57;;;13.10;99.90;;;;;;5104519;28;20255;-77
2022/05/08 06:44:44;;;;;;;15.90;14.50;;;13.30;99.90;;;;;;5099644;28;20200;-78
2022/05/08 06:47:11;;;;;;;11.47;10.20;;;13.40;99.90;;;;;;5104565;27;20212;-78
2022/05/08 06:49:38;;;;;;;14.30;13.10;;;13.50;99.90;;;;;;5110137;28;20194;-77
2022/05/08 06:52:05;;;;;;;15.73;14.13;;;13.70;99.90;;;;;;5105196;28;20633;-78
2022/05/08 06:54:32;;;;;;;13.90;12.77;;;13.90;99.90;;;;;;5108427;27;20217;-78
2022/05/08 06:57:00;;;;;;;10.43;9.37;;;14.20;99.90;;;;;;5105193;28;20198;-78
2022/05/08 07:02:12;;;;;;;9.53;8.53;;;14.70;99.90;;;;;;5104721;27;20724;-78
2022/05/08 07:04:39;;;;;;;11.07;9.83;;;15.10;99.90;;;;;;5103118;27;20189;-78
2022/05/08 07:07:06;;;;;;;10.43;9.33;;;15.20;99.90;;;;;;5107985;27;20209;-78
2022/05/08 07:09:35;;;;;;;14.63;12.50;;;15.50;99.90;;;;;;5108349;28;20265;-78
2022/05/08 07:12:02;;;;;;;13.73;12.60;;;15.80;99.90;;;;;;5105438;27;20284;-78
2022/05/08 07:14:30;;;;;;;13.23;12.23;;;16.30;99.90;;;;;;5104243;27;20200;-79
2022/05/08 07:16:57;;;;;;;14.30;13.10;;;16.80;99.90;;;;;;5094886;28;20439;-79
2022/05/08 07:19:26;;;;;;;11.43;10.32;;;17.10;99.90;;;;;;5095870;27;20800;-78
2022/05/08 07:21:53;;;;;;;12.70;11.53;;;17.30;99.90;;;;;;5098723;27;20449;-78
2022/05/08 07:24:19;;;;;;;13.47;10.03;;;17.60;99.90;;;;;;5091062;28;20201;-79
2022/05/08 07:26:47;;;;;;;11.80;10.60;;;17.80;99.90;;;;;;5093725;28;20195;-79
2022/05/08 07:29:14;;;;;;;12.13;11.23;;;18.10;99.90;;;;;;5102464;27;20203;-80
2022/05/08 07:31:43;;;;;;;13.10;12.10;;;18.60;99.90;;;;;;5129407;27;20196;-80
2022/05/08 07:36:54;;;;;;;15.53;14.20;;;19.60;99.90;;;;;;5099905;28;20573;-84
2022/05/08 07:39:21;;;;;;;9.83;8.93;;;20.10;99.90;;;;;;5104952;27;20208;-80
2022/05/08 07:41:49;;;;;;;12.52;11.48;;;20.30;99.90;;;;;;5104039;28;20085;-79
2022/05/08 07:44:16;;;;;;;13.77;12.63;;;19.80;99.90;;;;;;5099426;27;20275;-81
2022/05/08 07:46:45;;;;;;;11.02;10.02;;;19.70;99.90;;;;;;5100172;28;20485;-80
2022/05/08 07:49:12;;;;;;;12.83;11.83;;;20.20;99.90;;;;;;5105796;27;20203;-79
2022/05/08 07:51:39;;;;;;;14.30;13.10;;;20.30;99.90;;;;;;5092693;28;20189;-80
2022/05/08 07:54:06;;;;;;;14.10;13.10;;;20.40;99.90;;;;;;5087722;28;20248;-80
2022/05/08 07:56:34;;;;;;;14.27;12.83;;;20.80;99.90;;;;;;5090672;28;20194;-80
2022/05/08 07:59:01;;;;;;;11.90;10.70;;;20.80;99.90;;;;;;5095491;28;20275;-80
2022/05/08 08:01:27;;;;;;;13.23;12.03;;;21.20;99.90;;;;;;5104951;27;20249;-78
2022/05/08 08:03:56;;;;;;;14.10;12.93;;;21.30;99.90;;;;;;5102584;27;20319;-79
2022/05/08 08:06:23;;;;;;;12.95;11.85;;;21.20;99.90;;;;;;5101724;28;20839;-81
2022/05/08 08:08:50;;;;;;;13.60;12.20;;;21.30;99.90;;;;;;5088717;28;20193;-79
2022/05/08 08:11:17;;;;;;;11.87;10.70;;;21.40;99.90;;;;;;5094152;28;20221;-78
2022/05/08 08:13:44;;;;;;;13.23;12.13;;;21.60;99.90;;;;;;5084515;28;20590;-79
2022/05/08 08:16:11;;;;;;;11.37;10.27;;;21.30;99.90;;;;;;5093434;28;20292;-79
2022/05/08 08:18:42;;;;;;;12.23;11.00;;;21.40;99.90;;;;;;5101612;27;20190;-79
2022/05/08 08:21:12;;;;;;;13.43;12.23;;;21.60;99.90;;;;;;5102631;28;20613;-80
2022/05/08 08:23:39;;;;;;;11.13;10.13;;;21.60;99.90;;;;;;5111208;28;20214;-80
2022/05/08 08:26:06;;;;;;;13.70;12.43;;;21.40;99.90;;;;;;5107312;28;20224;-80
2022/05/08 08:28:33;;;;;;;11.15;10.25;;;21.10;99.90;;;;;;5109004;28;20444;-79
2022/05/08 08:31:00;;;;;;;12.03;10.93;;;20.60;99.90;;;;;;5105890;28;20670;-79
2022/05/08 08:33:27;;;;;;;12.53;11.43;;;20.60;99.90;;;;;;5111764;28;20763;-80
2022/05/08 08:35:55;;;;;;;13.77;12.57;;;20.50;99.90;;;;;;5111254;28;20211;-80
2022/05/08 08:38:23;;;;;;;11.80;10.80;;;20.70;99.90;;;;;;5107160;28;20295;-78
2022/05/08 08:40:51;;;;;;;10.37;7.90;;;20.90;99.90;;;;;;5098259;28;20203;-80
2022/05/08 08:43:18;;;;;;;12.40;10.03;;;20.90;99.90;;;;;;5091967;28;20309;-80
2022/05/08 08:48:32;;;;;;;12.13;11.23;;;20.90;99.90;;;;;;5106985;28;20190;-80
2022/05/08 08:51:00;;;;;;;11.73;10.60;;;21.10;99.90;;;;;;5105437;28;20215;-80
2022/05/08 08:53:30;;;;;;;12.43;11.43;;;21.50;99.90;;;;;;5102262;28;20262;-80
2022/05/08 08:55:59;;;;;;;9.90;9.00;;;21.40;99.90;;;;;;5106517;28;20208;-80
2022/05/08 08:58:26;;;;;;;13.80;12.60;;;21.30;99.90;;;;;;5107263;28;20204;-81
2022/05/08 09:00:54;;;;;;;14.37;13.07;;;21.20;99.90;;;;;;5101996;28;20208;-80
2022/05/08 09:03:25;;;;;;;15.37;13.93;;;20.80;99.90;;;;;;5104096;28;20312;-80
2022/05/08 09:05:55;;;;;;;9.63;8.63;;;20.90;99.90;;;;;;5110656;28;20283;-80
2022/05/08 09:08:27;;;;;;;10.20;9.20;;;21.20;99.90;;;;;;5105617;28;20265;-80
2022/05/08 09:10:58;;;;;;;10.17;9.20;;;21.20;99.90;;;;;;5110247;28;20661;-79
2022/05/08 09:13:26;;;;;;;10.50;9.50;;;21.20;99.90;;;;;;5105152;28;20217;-80
2022/05/08 09:16:02;;;;;;;8.10;7.30;;;21.00;99.90;;;;;;5102886;28;20673;-80
2022/05/08 09:18:29;;;;;;;9.90;8.90;;;21.40;99.90;;;;;;5107712;28;20211;-80
2022/05/08 09:21:54;;;;;;;9.83;8.77;;;22.30;99.90;;;;;;5100087;28;20205;-79
2022/05/08 09:23:45;;;;;;;8.87;7.43;;;22.50;99.90;;;;;;5090989;28;20218;-79
2022/05/08 09:26:14;;;;;;;9.87;8.93;;;22.60;99.90;;;;;;5121687;28;20201;-79
2022/05/08 09:28:42;;;;;;;11.37;10.37;;;22.60;99.90;;;;;;5109976;28;20315;-79
2022/05/08 09:31:10;;;;;;;10.73;9.50;;;22.20;99.90;;;;;;5109614;28;20516;-79
2022/05/08 09:33:38;;;;;;;11.53;10.60;;;22.10;99.90;;;;;;5106251;28;20209;-79
2022/05/08 09:36:07;;;;;;;8.17;7.47;;;22.30;99.90;;;;;;5122093;28;20238;-80
2022/05/08 09:38:42;;;;;;;7.47;6.67;;;22.20;99.90;;;;;;5099592;28;20200;-81
2022/05/08 09:41:09;;;;;;;8.30;5.50;;;22.50;99.90;;;;;;5111442;27;20303;-79
2022/05/08 09:43:40;;;;;;;7.73;5.73;;;23.20;99.90;;;;;;5105490;27;20220;-79
2022/05/08 09:46:08;;;;;;;7.83;6.33;;;23.40;99.90;;;;;;5109858;27;20230;-80
2022/05/08 09:48:35;;;;;;;7.93;5.93;;;23.70;99.90;;;;;;5107296;27;20200;-77
2022/05/08 09:51:03;;;;;;;8.03;6.13;;;23.60;99.90;;;;;;5123618;27;20192;-77
2022/05/08 09:53:31;;;;;;;7.03;5.53;;;23.60;99.90;;;;;;5107938;27;20771;-77
2022/05/08 09:56:00;;;;;;;6.90;6.20;;;23.40;99.90;;;;;;5108891;27;20192;-77
2022/05/08 09:58:27;;;;;;;7.23;6.53;;;23.30;99.90;;;;;;5122504;27;20613;-79
2022/05/08 10:00:56;;;;;;;7.37;6.67;;;23.20;99.90;;;;;;5109441;27;20196;-79
2022/05/08 10:03:23;;;;;;;7.67;6.93;;;23.00;99.90;;;;;;5126266;27;20217;-78
2022/05/08 10:05:55;;;;;;;8.97;8.07;;;23.00;99.90;;;;;;5109163;28;20289;-78
2022/05/08 10:08:24;;;;;;;11.03;10.17;;;22.70;99.90;;;;;;5100320;27;20206;-79
2022/05/08 10:14:07;;;;;;;9.33;8.60;;;22.30;99.90;;;;;;5086087;27;20198;-81
2022/05/08 10:16:50;;;;;;;9.43;8.07;;;22.50;99.90;;;;;;5107979;27;20196;-79
2022/05/08 10:19:54;;;;;;;8.80;7.90;;;22.90;99.90;;;;;;5093769;28;20293;-79
2022/05/08 10:22:22;;;;;;;6.87;6.27;;;22.60;99.90;;;;;;5094942;28;20609;-81
2022/05/08 10:24:55;;;;;;;6.80;6.10;;;22.30;99.90;;;;;;5080508;28;20244;-79
2022/05/08 10:27:27;;;;;;;6.17;5.20;;;22.80;99.90;;;;;;5082146;28;20201;-80
2022/05/08 10:30:23;;;;;;;5.80;5.20;;;22.40;99.90;;;;;;5093828;28;20216;-79
2022/05/08 10:32:52;;;;;;;7.87;7.07;;;22.70;99.90;;;;;;5093661;28;20220;-79
2022/05/08 10:35:22;;;;;;;9.10;8.30;;;22.90;99.90;;;;;;5092462;27;20193;-78
2022/05/08 10:37:50;;;;;;;9.70;8.90;;;22.80;99.90;;;;;;5118282;27;20193;-79
2022/05/08 10:40:35;;;;;;;7.67;7.07;;;22.80;99.90;;;;;;5099699;28;20193;-79
2022/05/08 10:43:32;;;;;;;10.13;4.97;;;22.90;99.90;;;;;;5117159;27;20224;-79
2022/05/08 10:46:22;;;;;;;5.83;5.23;;;22.80;99.90;;;;;;5108008;27;20253;-78
2022/05/08 10:48:54;;;;;;;7.07;5.60;;;22.30;99.90;;;;;;5098621;27;20237;-79
2022/05/08 10:51:21;;;;;;;8.53;7.83;;;22.00;99.90;;;;;;5106225;28;20195;-78
2022/05/08 10:53:48;;;;;;;7.93;6.63;;;21.80;99.90;;;;;;5104131;28;20216;-79
2022/05/08 10:56:15;;;;;;;7.37;5.33;;;21.50;99.90;;;;;;5117134;27;20197;-78
2022/05/08 10:58:53;;;;;;;6.93;6.13;;;21.40;99.90;;;;;;5110795;27;20196;-79
2022/05/08 11:01:20;;;;;;;11.70;10.53;;;21.40;99.90;;;;;;5104121;27;20197;-79
2022/05/08 11:03:47;;;;;;;7.50;6.23;;;21.30;99.90;;;;;;5111975;28;20221;-79
2022/05/08 11:06:20;;;;;;;7.27;6.10;;;21.30;99.90;;;;;;5097706;28;20672;-79
2022/05/08 11:08:47;;;;;;;9.97;8.63;;;21.50;99.90;;;;;;5104067;27;20193;-79
2022/05/08 11:11:14;;;;;;;10.10;9.20;;;21.60;99.90;;;;;;5130312;27;20649;-80
2022/05/08 11:13:48;;;;;;;11.40;10.30;;;21.70;99.90;;;;;;5107572;27;20208;-80
2022/05/08 11:16:36;;;;;;;10.43;9.63;;;21.50;99.90;;;;;;5104531;28;20196;-80
2022/05/08 11:19:05;;;;;;;11.03;10.07;;;21.40;99.90;;;;;;5097959;28;20221;-81
2022/05/08 11:21:34;;;;;;;17.80;13.20;;;21.30;99.90;;;;;;5107471;27;20272;-80
2022/05/08 11:24:02;;;;;;;11.37;10.17;;;21.50;99.90;;;;;;5106435;28;20232;-79
2022/05/08 11:26:31;;;;;;;12.60;11.30;;;21.50;99.90;;;;;;5099157;27;20291;-80
2022/05/08 11:28:59;;;;;;;11.40;10.40;;;21.50;99.90;;;;;;5105798;28;20300;-81
2022/05/08 11:31:27;;;;;;;9.90;9.10;;;21.40;99.90;;;;;;5106771;27;20204;-81
2022/05/08 11:36:41;;;;;;;10.50;9.67;;;21.00;99.90;;;;;;5095800;27;20189;-80
2022/05/08 11:39:12;;;;;;;6.27;5.33;;;20.80;99.90;;;;;;5106465;27;20220;-80
2022/05/08 11:41:42;;;;;;;6.97;5.70;;;20.90;99.90;;;;;;5102040;27;20694;-80
2022/05/08 11:44:23;;;;;;;5.83;5.23;;;20.90;99.90;;;;;;5104986;27;20224;-80
2022/05/08 11:46:51;;;;;;;7.43;5.70;;;21.10;99.90;;;;;;5101703;28;20374;-79
2022/05/08 11:49:19;;;;;;;6.20;5.60;;;21.10;99.90;;;;;;5105803;27;20223;-79
2022/05/08 11:51:49;;;;;;;6.17;5.40;;;21.00;99.90;;;;;;5093624;28;20288;-78
2022/05/08 11:54:27;;;;;;;5.50;5.00;;;21.30;99.90;;;;;;5105874;27;20196;-79
2022/05/08 11:57:16;;;;;;;5.03;4.53;;;21.30;99.90;;;;;;5101138;28;20200;-78
2022/05/08 11:59:44;;;;;;;5.20;4.70;;;21.60;99.90;;;;;;5122096;27;20202;-79
2022/05/08 12:02:11;;;;;;;6.10;4.90;;;21.80;99.90;;;;;;5098089;28;20308;-79
2022/05/08 12:04:39;;;;;;;4.70;4.30;;;21.90;99.90;;;;;;5107256;27;20203;-79
2022/05/08 12:07:08;;;;;;;4.87;4.27;;;21.90;99.90;;;;;;5103662;28;20283;-80
2022/05/08 12:09:38;;;;;;;5.53;4.77;;;22.20;99.90;;;;;;5102247;27;20737;-80
2022/05/08 12:12:26;;;;;;;6.60;6.10;;;22.20;99.90;;;;;;5106442;28;20689;-78
2022/05/08 12:14:53;;;;;;;8.10;7.43;;;22.40;99.90;;;;;;5106675;27;20200;-79
2022/05/08 12:17:20;;;;;;;8.50;7.90;;;22.40;99.90;;;;;;5103667;28;20201;-78
2022/05/08 12:19:52;;;;;;;7.80;7.20;;;22.40;99.90;;;;;;5099002;27;20201;-78
2022/05/08 12:22:22;;;;;;;8.67;7.93;;;22.30;99.90;;;;;;5105539;27;20228;-78
2022/05/08 12:24:49;;;;;;;6.47;5.77;;;22.20;99.90;;;;;;5098325;27;20283;-80
2022/05/08 12:27:16;;;;;;;4.70;4.30;;;22.40;99.90;;;;;;5104388;28;20633;-79
2022/05/08 12:29:46;;;;;;;5.47;4.97;;;22.10;99.90;;;;;;5103284;28;20292;-79
2022/05/08 12:32:13;;;;;;;6.83;4.73;;;22.00;99.90;;;;;;5102660;28;20217;-79
2022/05/08 12:34:41;;;;;;;5.57;4.60;;;21.90;99.90;;;;;;5101166;28;20208;-78
2022/05/08 12:37:11;;;;;;;5.13;4.13;;;21.90;99.90;;;;;;5105592;28;20265;-79
2022/05/08 12:39:39;;;;;;;5.20;3.93;;;21.70;99.90;;;;;;5092537;28;20672;-79
2022/05/08 12:42:07;;;;;;;5.00;4.50;;;21.50;99.90;;;;;;5103215;28;20716;-79
2022/05/08 12:44:36;;;;;;;5.00;4.50;;;21.30;99.90;;;;;;5097622;28;20715;-79
2022/05/08 12:47:05;;;;;;;6.67;4.50;;;21.20;99.90;;;;;;5094041;28;20201;-78
2022/05/08 12:49:32;;;;;;;5.43;3.90;;;20.90;99.90;;;;;;5094843;28;20549;-79
2022/05/08 12:51:59;;;;;;;8.63;8.00;;;20.90;99.90;;;;;;5095030;28;20193;-79
2022/05/08 12:54:26;;;;;;;6.33;5.83;;;20.90;99.90;;;;;;5095734;28;20262;-79
2022/05/08 12:56:55;;;;;;;10.30;6.57;;;20.90;99.90;;;;;;5095357;28;20292;-78
2022/05/08 13:02:10;;;;;;;6.67;4.60;;;20.60;99.90;;;;;;5093137;28;20307;-79
2022/05/08 13:04:37;;;;;;;4.50;3.83;;;20.70;99.90;;;;;;5095569;28;20693;-79
2022/05/08 13:07:04;;;;;;;6.17;5.57;;;20.60;99.90;;;;;;5091585;28;20197;-78
2022/05/08 13:09:31;;;;;;;7.70;7.00;;;20.30;99.90;;;;;;5094453;28;20215;-78